Oostrozebeke, Belgium
Current Conditions -  °F | °C
As of 12:30 PM on Wednesday 26 Nov 2014 (Local Time) from LFQQ Reporting Station
Light Rain Light Rain  
Wind Chill: 44°   Ceiling: 400
Heat Index: 46°   Visibility: 1.8mi
Dew Point: 46°   Wind: 5mph
Humidity: 100%   Direction: 130°SE
Pressure: 29.88"   Gusts: NA
Location:  50.92°N, 3.34°E
Report Text: LFQQ 261130Z 13004KT 3000 -RA OVC004 08/08 Q1012 TEMPO1500 DZRA OVC002
Loading
Personal Weather Stations






























Interactive Weather Map New forecast layout! Learn more

10-Day Weather Forecast

Advertisements
Track Severe Weather on mobile